sensor_id;sensor_type;location;lat;lon;timestamp;P1;durP1;ratioP1;P2;durP2;ratioP2
69775;SDS011;57049;51.450;-2.516;2023-05-14T00:00:06;1999.90;;;999.90;;
69775;SDS011;57049;51.450;-2.516;2023-05-14T00:02:32;1640.80;;;864.58;;
69775;SDS011;57049;51.450;-2.516;2023-05-14T00:04:58;1007.47;;;632.00;;
69775;SDS011;57049;51.450;-2.516;2023-05-14T00:07:23;1516.77;;;831.53;;
69775;SDS011;57049;51.450;-2.516;2023-05-14T00:09:54;1999.90;;;999.90;;
69775;SDS011;57049;51.450;-2.516;2023-05-14T00:12:23;1631.55;;;856.67;;
69775;SDS011;57049;51.450;-2.516;2023-05-14T00:14:50;1258.20;;;711.85;;
69775;SDS011;57049;51.450;-2.516;2023-05-14T00:17:16;506.37;;;407.50;;
69775;SDS011;57049;51.450;-2.516;2023-05-14T00:19:41;480.85;;;422.23;;
69775;SDS011;57049;51.450;-2.516;2023-05-14T00:22:07;578.03;;;519.30;;
69775;SDS011;57049;51.450;-2.516;2023-05-14T00:24:33;1270.85;;;743.97;;
69775;SDS011;57049;51.450;-2.516;2023-05-14T00:26:58;521.20;;;475.40;;
69775;SDS011;57049;51.450;-2.516;2023-05-14T00:29:24;474.02;;;426.35;;
69775;SDS011;57049;51.450;-2.516;2023-05-14T00:31:50;512.67;;;467.33;;
69775;SDS011;57049;51.450;-2.516;2023-05-14T00:34:15;1011.57;;;646.53;;
69775;SDS011;57049;51.450;-2.516;2023-05-14T00:36:40;509.42;;;464.42;;
69775;SDS011;57049;51.450;-2.516;2023-05-14T00:39:06;502.97;;;464.60;;
69775;SDS011;57049;51.450;-2.516;2023-05-14T00:41:31;468.20;;;430.70;;
69775;SDS011;57049;51.450;-2.516;2023-05-14T00:43:57;521.83;;;475.08;;
69775;SDS011;57049;51.450;-2.516;2023-05-14T00:46:22;503.60;;;470.47;;
69775;SDS011;57049;51.450;-2.516;2023-05-14T00:48:48;465.93;;;429.90;;
69775;SDS011;57049;51.450;-2.516;2023-05-14T00:51:13;389.40;;;361.20;;
69775;SDS011;57049;51.450;-2.516;2023-05-14T00:53:40;451.20;;;421.55;;
69775;SDS011;57049;51.450;-2.516;2023-05-14T00:56:05;420.42;;;389.15;;
69775;SDS011;57049;51.450;-2.516;2023-05-14T00:58:32;408.03;;;382.30;;
69775;SDS011;57049;51.450;-2.516;2023-05-14T01:00:58;394.65;;;365.60;;
69775;SDS011;57049;51.450;-2.516;2023-05-14T01:03:23;353.50;;;328.30;;
69775;SDS011;57049;51.450;-2.516;2023-05-14T01:14:39;282.40;;;266.48;;
69775;SDS011;57049;51.450;-2.516;2023-05-14T01:17:17;308.42;;;290.58;;
69775;SDS011;57049;51.450;-2.516;2023-05-14T01:19:44;294.05;;;276.13;;
69775;SDS011;57049;51.450;-2.516;2023-05-14T01:22:11;333.13;;;314.63;;
69775;SDS011;57049;51.450;-2.516;2023-05-14T01:24:37;327.00;;;307.02;;
69775;SDS011;57049;51.450;-2.516;2023-05-14T01:29:36;259.63;;;244.70;;
69775;SDS011;57049;51.450;-2.516;2023-05-14T01:32:05;273.27;;;258.23;;
69775;SDS011;57049;51.450;-2.516;2023-05-14T01:34:32;275.80;;;260.60;;
69775;SDS011;57049;51.450;-2.516;2023-05-14T01:37:00;281.77;;;265.98;;
69775;SDS011;57049;51.450;-2.516;2023-05-14T01:39:26;258.45;;;245.48;;
69775;SDS011;57049;51.450;-2.516;2023-05-14T01:41:52;232.77;;;219.97;;
69775;SDS011;57049;51.450;-2.516;2023-05-14T01:44:19;302.08;;;285.33;;
69775;SDS011;57049;51.450;-2.516;2023-05-14T01:46:45;292.50;;;274.90;;
69775;SDS011;57049;51.450;-2.516;2023-05-14T01:49:11;255.27;;;241.27;;
69775;SDS011;57049;51.450;-2.516;2023-05-14T01:51:36;274.42;;;260.05;;
69775;SDS011;57049;51.450;-2.516;2023-05-14T01:54:02;251.27;;;237.73;;
69775;SDS011;57049;51.450;-2.516;2023-05-14T01:56:27;261.53;;;248.03;;
69775;SDS011;57049;51.450;-2.516;2023-05-14T01:58:53;220.43;;;207.65;;
69775;SDS011;57049;51.450;-2.516;2023-05-14T02:01:20;332.70;;;314.25;;
69775;SDS011;57049;51.450;-2.516;2023-05-14T02:03:46;367.20;;;346.37;;
69775;SDS011;57049;51.450;-2.516;2023-05-14T02:06:12;339.37;;;317.63;;
69775;SDS011;57049;51.450;-2.516;2023-05-14T02:08:37;295.97;;;278.83;;
69775;SDS011;57049;51.450;-2.516;2023-05-14T02:11:03;367.27;;;345.50;;
69775;SDS011;57049;51.450;-2.516;2023-05-14T02:13:28;365.95;;;342.83;;
69775;SDS011;57049;51.450;-2.516;2023-05-14T02:15:54;308.00;;;290.07;;
69775;SDS011;57049;51.450;-2.516;2023-05-14T02:18:19;321.53;;;301.17;;
69775;SDS011;57049;51.450;-2.516;2023-05-14T02:20:45;301.47;;;282.13;;
69775;SDS011;57049;51.450;-2.516;2023-05-14T02:23:10;378.38;;;356.65;;
69775;SDS011;57049;51.450;-2.516;2023-05-14T02:25:36;289.37;;;271.83;;
69775;SDS011;57049;51.450;-2.516;2023-05-14T02:28:01;333.23;;;313.63;;
69775;SDS011;57049;51.450;-2.516;2023-05-14T02:30:27;261.43;;;247.10;;
69775;SDS011;57049;51.450;-2.516;2023-05-14T02:32:54;260.67;;;245.10;;
69775;SDS011;57049;51.450;-2.516;2023-05-14T02:35:19;262.60;;;243.93;;
69775;SDS011;57049;51.450;-2.516;2023-05-14T02:37:44;323.27;;;305.70;;
69775;SDS011;57049;51.450;-2.516;2023-05-14T02:40:10;291.48;;;274.73;;
69775;SDS011;57049;51.450;-2.516;2023-05-14T02:42:35;236.00;;;223.57;;
69775;SDS011;57049;51.450;-2.516;2023-05-14T02:45:01;249.23;;;236.03;;
69775;SDS011;57049;51.450;-2.516;2023-05-14T02:47:26;258.83;;;244.27;;
69775;SDS011;57049;51.450;-2.516;2023-05-14T02:49:52;223.03;;;210.23;;
69775;SDS011;57049;51.450;-2.516;2023-05-14T02:52:17;209.23;;;197.87;;
69775;SDS011;57049;51.450;-2.516;2023-05-14T02:54:43;206.10;;;193.93;;
69775;SDS011;57049;51.450;-2.516;2023-05-14T02:57:08;270.45;;;256.02;;
69775;SDS011;57049;51.450;-2.516;2023-05-14T02:59:33;231.10;;;217.40;;
69775;SDS011;57049;51.450;-2.516;2023-05-14T03:02:00;240.18;;;227.68;;
69775;SDS011;57049;51.450;-2.516;2023-05-14T03:04:25;303.23;;;287.80;;
69775;SDS011;57049;51.450;-2.516;2023-05-14T03:06:51;251.50;;;237.63;;
69775;SDS011;57049;51.450;-2.516;2023-05-14T03:09:16;222.43;;;210.77;;
69775;SDS011;57049;51.450;-2.516;2023-05-14T03:11:41;261.70;;;247.63;;
69775;SDS011;57049;51.450;-2.516;2023-05-14T03:14:07;252.87;;;239.87;;
69775;SDS011;57049;51.450;-2.516;2023-05-14T03:16:32;220.90;;;207.97;;
69775;SDS011;57049;51.450;-2.516;2023-05-14T03:18:58;264.43;;;250.53;;
69775;SDS011;57049;51.450;-2.516;2023-05-14T03:21:23;219.02;;;207.23;;
69775;SDS011;57049;51.450;-2.516;2023-05-14T03:23:50;203.17;;;191.30;;
69775;SDS011;57049;51.450;-2.516;2023-05-14T03:26:17;261.90;;;246.75;;
69775;SDS011;57049;51.450;-2.516;2023-05-14T03:28:42;219.43;;;207.57;;
69775;SDS011;57049;51.450;-2.516;2023-05-14T03:31:08;163.68;;;154.45;;
69775;SDS011;57049;51.450;-2.516;2023-05-14T03:33:34;194.60;;;183.57;;
69775;SDS011;57049;51.450;-2.516;2023-05-14T03:36:00;208.27;;;196.88;;
69775;SDS011;57049;51.450;-2.516;2023-05-14T03:38:25;237.32;;;224.48;;
69775;SDS011;57049;51.450;-2.516;2023-05-14T03:40:51;228.67;;;216.87;;
69775;SDS011;57049;51.450;-2.516;2023-05-14T03:43:16;225.20;;;212.77;;
69775;SDS011;57049;51.450;-2.516;2023-05-14T03:45:41;184.40;;;174.33;;
69775;SDS011;57049;51.450;-2.516;2023-05-14T03:48:07;190.90;;;180.07;;
69775;SDS011;57049;51.450;-2.516;2023-05-14T03:50:33;242.23;;;229.57;;
69775;SDS011;57049;51.450;-2.516;2023-05-14T03:52:58;219.32;;;208.10;;
69775;SDS011;57049;51.450;-2.516;2023-05-14T03:55:24;214.13;;;202.67;;
69775;SDS011;57049;51.450;-2.516;2023-05-14T03:57:49;227.87;;;215.27;;
69775;SDS011;57049;51.450;-2.516;2023-05-14T04:00:15;200.37;;;189.27;;
69775;SDS011;57049;51.450;-2.516;2023-05-14T04:02:41;194.55;;;183.88;;
69775;SDS011;57049;51.450;-2.516;2023-05-14T04:05:06;198.53;;;186.70;;
69775;SDS011;57049;51.450;-2.516;2023-05-14T04:07:32;194.33;;;182.67;;
69775;SDS011;57049;51.450;-2.516;2023-05-14T04:09:57;141.77;;;132.23;;
69775;SDS011;57049;51.450;-2.516;2023-05-14T04:12:23;183.02;;;172.70;;
69775;SDS011;57049;51.450;-2.516;2023-05-14T04:14:50;178.43;;;168.90;;
69775;SDS011;57049;51.450;-2.516;2023-05-14T04:17:16;191.47;;;180.70;;
69775;SDS011;57049;51.450;-2.516;2023-05-14T04:19:41;196.97;;;185.83;;
69775;SDS011;57049;51.450;-2.516;2023-05-14T04:22:07;172.93;;;163.03;;
69775;SDS011;57049;51.450;-2.516;2023-05-14T04:24:32;226.50;;;214.17;;
69775;SDS011;57049;51.450;-2.516;2023-05-14T04:26:58;166.20;;;156.75;;
69775;SDS011;57049;51.450;-2.516;2023-05-14T04:29:23;205.13;;;193.87;;
69775;SDS011;57049;51.450;-2.516;2023-05-14T04:31:49;172.03;;;161.30;;
69775;SDS011;57049;51.450;-2.516;2023-05-14T04:34:14;192.50;;;181.70;;
69775;SDS011;57049;51.450;-2.516;2023-05-14T04:36:40;167.53;;;158.37;;
69775;SDS011;57049;51.450;-2.516;2023-05-14T04:39:06;138.30;;;130.53;;
69775;SDS011;57049;51.450;-2.516;2023-05-14T04:41:33;111.15;;;104.00;;
69775;SDS011;57049;51.450;-2.516;2023-05-14T04:43:59;218.13;;;206.57;;
69775;SDS011;57049;51.450;-2.516;2023-05-14T04:46:25;165.30;;;155.87;;
69775;SDS011;57049;51.450;-2.516;2023-05-14T04:48:51;275.60;;;256.05;;
69775;SDS011;57049;51.450;-2.516;2023-05-14T04:51:17;187.20;;;176.47;;
69775;SDS011;57049;51.450;-2.516;2023-05-14T04:53:42;231.63;;;219.23;;
69775;SDS011;57049;51.450;-2.516;2023-05-14T04:56:08;197.05;;;185.85;;
69775;SDS011;57049;51.450;-2.516;2023-05-14T04:58:34;255.10;;;241.67;;
69775;SDS011;57049;51.450;-2.516;2023-05-14T05:00:59;228.05;;;216.30;;
69775;SDS011;57049;51.450;-2.516;2023-05-14T05:03:25;204.47;;;193.83;;
69775;SDS011;57049;51.450;-2.516;2023-05-14T05:05:51;223.57;;;210.45;;
69775;SDS011;57049;51.450;-2.516;2023-05-14T05:08:16;172.10;;;161.60;;
69775;SDS011;57049;51.450;-2.516;2023-05-14T05:10:42;210.70;;;198.30;;
69775;SDS011;57049;51.450;-2.516;2023-05-14T05:13:07;171.17;;;160.13;;
69775;SDS011;57049;51.450;-2.516;2023-05-14T05:15:33;165.33;;;154.33;;
69775;SDS011;57049;51.450;-2.516;2023-05-14T05:17:59;228.93;;;214.37;;
69775;SDS011;57049;51.450;-2.516;2023-05-14T05:20:24;159.70;;;148.82;;
69775;SDS011;57049;51.450;-2.516;2023-05-14T05:22:52;193.40;;;179.80;;
69775;SDS011;57049;51.450;-2.516;2023-05-14T05:25:17;206.10;;;193.00;;
69775;SDS011;57049;51.450;-2.516;2023-05-14T05:27:43;141.18;;;132.18;;
69775;SDS011;57049;51.450;-2.516;2023-05-14T05:30:08;214.17;;;201.20;;
69775;SDS011;57049;51.450;-2.516;2023-05-14T05:32:34;174.95;;;164.00;;
69775;SDS011;57049;51.450;-2.516;2023-05-14T05:35:00;109.07;;;101.23;;
69775;SDS011;57049;51.450;-2.516;2023-05-14T05:37:26;190.02;;;178.15;;
69775;SDS011;57049;51.450;-2.516;2023-05-14T05:39:51;133.73;;;122.97;;
69775;SDS011;57049;51.450;-2.516;2023-05-14T05:42:17;185.98;;;170.00;;
69775;SDS011;57049;51.450;-2.516;2023-05-14T05:44:43;178.83;;;166.97;;
69775;SDS011;57049;51.450;-2.516;2023-05-14T05:47:09;198.60;;;184.73;;
69775;SDS011;57049;51.450;-2.516;2023-05-14T05:49:34;156.32;;;146.10;;
69775;SDS011;57049;51.450;-2.516;2023-05-14T05:52:01;198.73;;;187.65;;
69775;SDS011;57049;51.450;-2.516;2023-05-14T05:54:28;228.63;;;215.53;;
69775;SDS011;57049;51.450;-2.516;2023-05-14T05:56:56;248.45;;;230.70;;
69775;SDS011;57049;51.450;-2.516;2023-05-14T05:59:21;270.63;;;253.93;;
69775;SDS011;57049;51.450;-2.516;2023-05-14T06:01:47;263.73;;;248.57;;
69775;SDS011;57049;51.450;-2.516;2023-05-14T06:04:12;288.00;;;271.63;;
69775;SDS011;57049;51.450;-2.516;2023-05-14T06:06:38;314.40;;;292.57;;
69775;SDS011;57049;51.450;-2.516;2023-05-14T06:09:03;338.37;;;317.30;;
69775;SDS011;57049;51.450;-2.516;2023-05-14T06:11:30;352.05;;;326.65;;
69775;SDS011;57049;51.450;-2.516;2023-05-14T06:13:56;372.40;;;346.35;;
69775;SDS011;57049;51.450;-2.516;2023-05-14T06:16:21;416.73;;;388.50;;
69775;SDS011;57049;51.450;-2.516;2023-05-14T06:18:47;345.17;;;318.93;;
69775;SDS011;57049;51.450;-2.516;2023-05-14T06:21:13;385.20;;;360.52;;
69775;SDS011;57049;51.450;-2.516;2023-05-14T06:23:38;370.97;;;339.37;;
69775;SDS011;57049;51.450;-2.516;2023-05-14T06:26:04;523.33;;;471.98;;
69775;SDS011;57049;51.450;-2.516;2023-05-14T06:28:30;398.83;;;365.43;;
69775;SDS011;57049;51.450;-2.516;2023-05-14T06:30:55;507.55;;;457.92;;
69775;SDS011;57049;51.450;-2.516;2023-05-14T06:33:20;550.63;;;493.23;;
69775;SDS011;57049;51.450;-2.516;2023-05-14T06:35:53;870.03;;;585.92;;
69775;SDS011;57049;51.450;-2.516;2023-05-14T06:38:19;1512.23;;;809.97;;
69775;SDS011;57049;51.450;-2.516;2023-05-14T06:40:44;1999.90;;;999.90;;
69775;SDS011;57049;51.450;-2.516;2023-05-14T06:43:10;1525.07;;;800.53;;
69775;SDS011;57049;51.450;-2.516;2023-05-14T06:45:35;600.90;;;444.37;;
69775;SDS011;57049;51.450;-2.516;2023-05-14T06:48:01;1268.13;;;699.20;;
69775;SDS011;57049;51.450;-2.516;2023-05-14T06:50:26;388.17;;;315.10;;
69775;SDS011;57049;51.450;-2.516;2023-05-14T06:52:52;1512.17;;;780.60;;
69775;SDS011;57049;51.450;-2.516;2023-05-14T06:55:17;1628.63;;;865.17;;
69775;SDS011;57049;51.450;-2.516;2023-05-14T06:57:43;1543.70;;;803.47;;
69775;SDS011;57049;51.450;-2.516;2023-05-14T07:00:09;1999.90;;;999.90;;
69775;SDS011;57049;51.450;-2.516;2023-05-14T07:02:35;1999.90;;;999.90;;
69775;SDS011;57049;51.450;-2.516;2023-05-14T07:05:00;1999.90;;;999.90;;
69775;SDS011;57049;51.450;-2.516;2023-05-14T07:07:26;1999.90;;;999.90;;
69775;SDS011;57049;51.450;-2.516;2023-05-14T07:09:52;1999.90;;;999.90;;
69775;SDS011;57049;51.450;-2.516;2023-05-14T07:12:17;1999.90;;;999.90;;
69775;SDS011;57049;51.450;-2.516;2023-05-14T07:14:42;1452.83;;;731.47;;
69775;SDS011;57049;51.450;-2.516;2023-05-14T07:17:08;1999.90;;;999.90;;
69775;SDS011;57049;51.450;-2.516;2023-05-14T07:19:33;1999.90;;;999.90;;
69775;SDS011;57049;51.450;-2.516;2023-05-14T07:21:59;1999.90;;;999.90;;
69775;SDS011;57049;51.450;-2.516;2023-05-14T07:24:25;1999.90;;;999.90;;
69775;SDS011;57049;51.450;-2.516;2023-05-14T07:26:50;1999.90;;;999.90;;
69775;SDS011;57049;51.450;-2.516;2023-05-14T07:29:16;1999.90;;;999.90;;
69775;SDS011;57049;51.450;-2.516;2023-05-14T07:31:41;1999.90;;;999.90;;
69775;SDS011;57049;51.450;-2.516;2023-05-14T07:34:07;1142.90;;;634.27;;
69775;SDS011;57049;51.450;-2.516;2023-05-14T07:36:34;1999.90;;;999.90;;
69775;SDS011;57049;51.450;-2.516;2023-05-14T07:39:00;1999.90;;;999.90;;
69775;SDS011;57049;51.450;-2.516;2023-05-14T07:41:26;1999.90;;;999.90;;
69775;SDS011;57049;51.450;-2.516;2023-05-14T07:43:51;1999.90;;;999.90;;
69775;SDS011;57049;51.450;-2.516;2023-05-14T07:46:16;1999.90;;;999.90;;
69775;SDS011;57049;51.450;-2.516;2023-05-14T07:48:42;1999.90;;;999.90;;
69775;SDS011;57049;51.450;-2.516;2023-05-14T07:51:07;1999.90;;;999.90;;
69775;SDS011;57049;51.450;-2.516;2023-05-14T07:53:33;1999.90;;;999.90;;
69775;SDS011;57049;51.450;-2.516;2023-05-14T07:55:58;1999.90;;;999.90;;
69775;SDS011;57049;51.450;-2.516;2023-05-14T07:58:24;1999.90;;;999.90;;
69775;SDS011;57049;51.450;-2.516;2023-05-14T08:00:51;1999.90;;;999.90;;
69775;SDS011;57049;51.450;-2.516;2023-05-14T08:03:17;1999.90;;;999.90;;
69775;SDS011;57049;51.450;-2.516;2023-05-14T08:05:42;1999.90;;;999.90;;
69775;SDS011;57049;51.450;-2.516;2023-05-14T08:08:08;1999.90;;;999.90;;
69775;SDS011;57049;51.450;-2.516;2023-05-14T08:10:33;1999.90;;;999.90;;
69775;SDS011;57049;51.450;-2.516;2023-05-14T08:12:59;1999.90;;;999.90;;
69775;SDS011;57049;51.450;-2.516;2023-05-14T08:15:24;1999.90;;;999.90;;
69775;SDS011;57049;51.450;-2.516;2023-05-14T08:17:50;1999.90;;;999.90;;
69775;SDS011;57049;51.450;-2.516;2023-05-14T08:20:15;1999.90;;;999.90;;
69775;SDS011;57049;51.450;-2.516;2023-05-14T08:22:41;1999.90;;;999.90;;
69775;SDS011;57049;51.450;-2.516;2023-05-14T08:25:06;1999.90;;;999.90;;
69775;SDS011;57049;51.450;-2.516;2023-05-14T08:27:32;1999.90;;;999.90;;
69775;SDS011;57049;51.450;-2.516;2023-05-14T08:29:57;1999.90;;;999.90;;
69775;SDS011;57049;51.450;-2.516;2023-05-14T08:32:23;1999.90;;;999.90;;
69775;SDS011;57049;51.450;-2.516;2023-05-14T08:34:48;1999.90;;;999.90;;
69775;SDS011;57049;51.450;-2.516;2023-05-14T08:37:14;1999.90;;;999.90;;
69775;SDS011;57049;51.450;-2.516;2023-05-14T08:39:40;1999.90;;;999.90;;
69775;SDS011;57049;51.450;-2.516;2023-05-14T08:42:05;1999.90;;;999.90;;
69775;SDS011;57049;51.450;-2.516;2023-05-14T08:44:35;1999.90;;;999.90;;
69775;SDS011;57049;51.450;-2.516;2023-05-14T08:47:06;1999.90;;;999.90;;
69775;SDS011;57049;51.450;-2.516;2023-05-14T08:49:39;1999.90;;;999.90;;
69775;SDS011;57049;51.450;-2.516;2023-05-14T08:52:06;1999.90;;;999.90;;
69775;SDS011;57049;51.450;-2.516;2023-05-14T08:54:33;1999.90;;;999.90;;
69775;SDS011;57049;51.450;-2.516;2023-05-14T08:56:59;1999.90;;;999.90;;
69775;SDS011;57049;51.450;-2.516;2023-05-14T08:59:24;1999.90;;;999.90;;
69775;SDS011;57049;51.450;-2.516;2023-05-14T09:01:51;1999.90;;;999.90;;
69775;SDS011;57049;51.450;-2.516;2023-05-14T09:04:21;1999.90;;;999.90;;
69775;SDS011;57049;51.450;-2.516;2023-05-14T09:06:48;1999.90;;;999.90;;
69775;SDS011;57049;51.450;-2.516;2023-05-14T09:09:18;1999.90;;;999.90;;
69775;SDS011;57049;51.450;-2.516;2023-05-14T09:11:47;1999.90;;;999.90;;
69775;SDS011;57049;51.450;-2.516;2023-05-14T09:14:14;1999.90;;;999.90;;
69775;SDS011;57049;51.450;-2.516;2023-05-14T09:16:40;1999.90;;;999.90;;
69775;SDS011;57049;51.450;-2.516;2023-05-14T09:19:07;1999.90;;;999.90;;
69775;SDS011;57049;51.450;-2.516;2023-05-14T09:21:33;1999.90;;;999.90;;
69775;SDS011;57049;51.450;-2.516;2023-05-14T09:23:59;1999.90;;;999.90;;
69775;SDS011;57049;51.450;-2.516;2023-05-14T09:26:25;1999.90;;;999.90;;
69775;SDS011;57049;51.450;-2.516;2023-05-14T09:28:58;1999.90;;;999.90;;
69775;SDS011;57049;51.450;-2.516;2023-05-14T09:31:30;1999.90;;;999.90;;
69775;SDS011;57049;51.450;-2.516;2023-05-14T09:33:57;1999.90;;;999.90;;
69775;SDS011;57049;51.450;-2.516;2023-05-14T09:36:23;1999.90;;;999.90;;
69775;SDS011;57049;51.450;-2.516;2023-05-14T09:38:51;1999.90;;;999.90;;
69775;SDS011;57049;51.450;-2.516;2023-05-14T09:41:27;1999.90;;;999.90;;
69775;SDS011;57049;51.450;-2.516;2023-05-14T09:43:53;1999.90;;;999.90;;
69775;SDS011;57049;51.450;-2.516;2023-05-14T09:46:21;1999.90;;;999.90;;
69775;SDS011;57049;51.450;-2.516;2023-05-14T09:48:47;1999.90;;;999.90;;
69775;SDS011;57049;51.450;-2.516;2023-05-14T09:51:13;1999.90;;;999.90;;
69775;SDS011;57049;51.450;-2.516;2023-05-14T09:53:40;1999.90;;;999.90;;
69775;SDS011;57049;51.450;-2.516;2023-05-14T09:56:07;1999.90;;;999.90;;
69775;SDS011;57049;51.450;-2.516;2023-05-14T09:58:33;1999.90;;;999.90;;
69775;SDS011;57049;51.450;-2.516;2023-05-14T10:01:00;1999.90;;;999.90;;
69775;SDS011;57049;51.450;-2.516;2023-05-14T10:03:26;1999.90;;;999.90;;
69775;SDS011;57049;51.450;-2.516;2023-05-14T10:05:55;1999.90;;;999.90;;
69775;SDS011;57049;51.450;-2.516;2023-05-14T10:08:34;1999.90;;;999.90;;
69775;SDS011;57049;51.450;-2.516;2023-05-14T10:11:04;1999.90;;;999.90;;
69775;SDS011;57049;51.450;-2.516;2023-05-14T10:13:38;1999.90;;;999.90;;
69775;SDS011;57049;51.450;-2.516;2023-05-14T10:16:07;1999.90;;;999.90;;
69775;SDS011;57049;51.450;-2.516;2023-05-14T10:18:45;1999.90;;;999.90;;
69775;SDS011;57049;51.450;-2.516;2023-05-14T10:21:15;1999.90;;;999.90;;
69775;SDS011;57049;51.450;-2.516;2023-05-14T10:23:45;1999.90;;;999.90;;
69775;SDS011;57049;51.450;-2.516;2023-05-14T10:26:12;1999.90;;;999.90;;
69775;SDS011;57049;51.450;-2.516;2023-05-14T10:28:38;1999.90;;;999.90;;
69775;SDS011;57049;51.450;-2.516;2023-05-14T10:31:03;1999.90;;;999.90;;
69775;SDS011;57049;51.450;-2.516;2023-05-14T10:33:29;1999.90;;;999.90;;
69775;SDS011;57049;51.450;-2.516;2023-05-14T10:38:28;1999.90;;;999.90;;
69775;SDS011;57049;51.450;-2.516;2023-05-14T10:40:59;1999.90;;;999.90;;
69775;SDS011;57049;51.450;-2.516;2023-05-14T10:43:25;1999.90;;;999.90;;
69775;SDS011;57049;51.450;-2.516;2023-05-14T10:45:55;1999.90;;;999.90;;
69775;SDS011;57049;51.450;-2.516;2023-05-14T10:48:22;1999.90;;;999.90;;
69775;SDS011;57049;51.450;-2.516;2023-05-14T10:50:51;1999.90;;;999.90;;
69775;SDS011;57049;51.450;-2.516;2023-05-14T10:53:17;1999.90;;;999.90;;
69775;SDS011;57049;51.450;-2.516;2023-05-14T10:55:43;1999.90;;;999.90;;
69775;SDS011;57049;51.450;-2.516;2023-05-14T10:58:10;1999.90;;;999.90;;
69775;SDS011;57049;51.450;-2.516;2023-05-14T11:00:36;1999.90;;;999.90;;
69775;SDS011;57049;51.450;-2.516;2023-05-14T11:03:03;1999.90;;;999.90;;
69775;SDS011;57049;51.450;-2.516;2023-05-14T11:05:30;1999.90;;;999.90;;
69775;SDS011;57049;51.450;-2.516;2023-05-14T11:07:57;1999.90;;;999.90;;
69775;SDS011;57049;51.450;-2.516;2023-05-14T11:10:22;1999.90;;;999.90;;
69775;SDS011;57049;51.450;-2.516;2023-05-14T11:12:54;1999.90;;;999.90;;
69775;SDS011;57049;51.450;-2.516;2023-05-14T11:15:21;1999.90;;;999.90;;
69775;SDS011;57049;51.450;-2.516;2023-05-14T11:17:48;1999.90;;;999.90;;
69775;SDS011;57049;51.450;-2.516;2023-05-14T11:20:14;1999.90;;;999.90;;
69775;SDS011;57049;51.450;-2.516;2023-05-14T11:22:44;1999.90;;;999.90;;
69775;SDS011;57049;51.450;-2.516;2023-05-14T11:25:10;1999.90;;;999.90;;
69775;SDS011;57049;51.450;-2.516;2023-05-14T11:27:41;1999.90;;;999.90;;
69775;SDS011;57049;51.450;-2.516;2023-05-14T11:30:15;1999.90;;;999.90;;
69775;SDS011;57049;51.450;-2.516;2023-05-14T11:32:42;1999.90;;;999.90;;
69775;SDS011;57049;51.450;-2.516;2023-05-14T11:35:09;1999.90;;;999.90;;
69775;SDS011;57049;51.450;-2.516;2023-05-14T11:37:35;1999.90;;;999.90;;
69775;SDS011;57049;51.450;-2.516;2023-05-14T11:40:00;1999.90;;;999.90;;
69775;SDS011;57049;51.450;-2.516;2023-05-14T11:42:26;1999.90;;;999.90;;
69775;SDS011;57049;51.450;-2.516;2023-05-14T11:44:52;1999.90;;;999.90;;
69775;SDS011;57049;51.450;-2.516;2023-05-14T11:47:21;1999.90;;;999.90;;
69775;SDS011;57049;51.450;-2.516;2023-05-14T11:49:47;1999.90;;;999.90;;
69775;SDS011;57049;51.450;-2.516;2023-05-14T11:52:14;1999.90;;;999.90;;
69775;SDS011;57049;51.450;-2.516;2023-05-14T11:54:40;1999.90;;;999.90;;
69775;SDS011;57049;51.450;-2.516;2023-05-14T11:57:11;1999.90;;;999.90;;
69775;SDS011;57049;51.450;-2.516;2023-05-14T11:59:38;1999.90;;;999.90;;
69775;SDS011;57049;51.450;-2.516;2023-05-14T12:02:04;1999.90;;;999.90;;
69775;SDS011;57049;51.450;-2.516;2023-05-14T12:04:34;1019.67;;;506.65;;
69775;SDS011;57049;51.450;-2.516;2023-05-14T12:07:03;1999.90;;;999.90;;
69775;SDS011;57049;51.450;-2.516;2023-05-14T12:09:35;1999.90;;;999.90;;
69775;SDS011;57049;51.450;-2.516;2023-05-14T12:12:07;1999.90;;;999.90;;
69775;SDS011;57049;51.450;-2.516;2023-05-14T12:14:36;1999.90;;;999.90;;
69775;SDS011;57049;51.450;-2.516;2023-05-14T12:17:19;1999.90;;;999.90;;
69775;SDS011;57049;51.450;-2.516;2023-05-14T12:19:46;1999.90;;;999.90;;
69775;SDS011;57049;51.450;-2.516;2023-05-14T12:22:14;1999.90;;;999.90;;
69775;SDS011;57049;51.450;-2.516;2023-05-14T12:24:43;1999.90;;;999.90;;
69775;SDS011;57049;51.450;-2.516;2023-05-14T12:27:20;1999.90;;;999.90;;
69775;SDS011;57049;51.450;-2.516;2023-05-14T12:29:52;1999.90;;;999.90;;
69775;SDS011;57049;51.450;-2.516;2023-05-14T12:32:24;1999.90;;;999.90;;
69775;SDS011;57049;51.450;-2.516;2023-05-14T12:34:50;1999.90;;;999.90;;
69775;SDS011;57049;51.450;-2.516;2023-05-14T12:37:15;1999.90;;;999.90;;
69775;SDS011;57049;51.450;-2.516;2023-05-14T12:39:42;1999.90;;;999.90;;
69775;SDS011;57049;51.450;-2.516;2023-05-14T12:42:07;1999.90;;;999.90;;
69775;SDS011;57049;51.450;-2.516;2023-05-14T12:44:33;1999.90;;;999.90;;
69775;SDS011;57049;51.450;-2.516;2023-05-14T12:46:58;1999.90;;;999.90;;
69775;SDS011;57049;51.450;-2.516;2023-05-14T12:49:24;1999.90;;;999.90;;
69775;SDS011;57049;51.450;-2.516;2023-05-14T12:51:49;1999.90;;;999.90;;
69775;SDS011;57049;51.450;-2.516;2023-05-14T12:54:15;1999.90;;;999.90;;
69775;SDS011;57049;51.450;-2.516;2023-05-14T12:56:40;1999.90;;;999.90;;
69775;SDS011;57049;51.450;-2.516;2023-05-14T12:59:06;1999.90;;;999.90;;
69775;SDS011;57049;51.450;-2.516;2023-05-14T13:01:33;1999.90;;;999.90;;
69775;SDS011;57049;51.450;-2.516;2023-05-14T13:03:58;1999.90;;;999.90;;
69775;SDS011;57049;51.450;-2.516;2023-05-14T13:06:24;1999.90;;;999.90;;
69775;SDS011;57049;51.450;-2.516;2023-05-14T13:08:49;1999.90;;;999.90;;
69775;SDS011;57049;51.450;-2.516;2023-05-14T13:11:15;1999.90;;;999.90;;
69775;SDS011;57049;51.450;-2.516;2023-05-14T13:13:40;1999.90;;;999.90;;
69775;SDS011;57049;51.450;-2.516;2023-05-14T13:16:06;1999.90;;;999.90;;
69775;SDS011;57049;51.450;-2.516;2023-05-14T13:18:31;1999.90;;;999.90;;
69775;SDS011;57049;51.450;-2.516;2023-05-14T13:20:57;1999.90;;;999.90;;
69775;SDS011;57049;51.450;-2.516;2023-05-14T13:23:22;1999.90;;;999.90;;
69775;SDS011;57049;51.450;-2.516;2023-05-14T13:25:48;1999.90;;;999.90;;
69775;SDS011;57049;51.450;-2.516;2023-05-14T13:28:13;1999.90;;;999.90;;
69775;SDS011;57049;51.450;-2.516;2023-05-14T13:30:39;1999.90;;;999.90;;
69775;SDS011;57049;51.450;-2.516;2023-05-14T13:33:04;1999.90;;;999.90;;
69775;SDS011;57049;51.450;-2.516;2023-05-14T13:35:30;1999.90;;;999.90;;
69775;SDS011;57049;51.450;-2.516;2023-05-14T13:37:55;1999.90;;;999.90;;
69775;SDS011;57049;51.450;-2.516;2023-05-14T13:40:21;1999.90;;;999.90;;
69775;SDS011;57049;51.450;-2.516;2023-05-14T13:42:46;1999.90;;;999.90;;
69775;SDS011;57049;51.450;-2.516;2023-05-14T13:45:12;1999.90;;;999.90;;
69775;SDS011;57049;51.450;-2.516;2023-05-14T13:47:37;1999.90;;;999.90;;